sensor_id;sensor_type;location;lat;lon;timestamp;P1;durP1;ratioP1;P2;durP2;ratioP2
50880;SDS011;36858;47.832;-3.800;2022-09-02T00:00:48;1.73;;;1.00;;
50880;SDS011;36858;47.832;-3.800;2022-09-02T00:03:17;1.33;;;1.10;;
50880;SDS011;36858;47.832;-3.800;2022-09-02T00:05:45;2.07;;;1.10;;
50880;SDS011;36858;47.832;-3.800;2022-09-02T00:08:12;1.30;;;1.17;;
50880;SDS011;36858;47.832;-3.800;2022-09-02T00:10:40;2.70;;;1.10;;
50880;SDS011;36858;47.832;-3.800;2022-09-02T00:13:09;1.37;;;0.97;;
50880;SDS011;36858;47.832;-3.800;2022-09-02T00:15:38;1.00;;;0.90;;
50880;SDS011;36858;47.832;-3.800;2022-09-02T00:18:05;1.80;;;1.00;;
50880;SDS011;36858;47.832;-3.800;2022-09-02T00:20:41;1.23;;;0.90;;
50880;SDS011;36858;47.832;-3.800;2022-09-02T00:23:11;1.37;;;1.00;;
50880;SDS011;36858;47.832;-3.800;2022-09-02T00:25:39;3.00;;;1.13;;
50880;SDS011;36858;47.832;-3.800;2022-09-02T00:28:06;1.53;;;1.30;;
50880;SDS011;36858;47.832;-3.800;2022-09-02T00:30:33;1.23;;;1.13;;
50880;SDS011;36858;47.832;-3.800;2022-09-02T00:33:01;1.33;;;1.20;;
50880;SDS011;36858;47.832;-3.800;2022-09-02T00:35:28;1.07;;;0.97;;
50880;SDS011;36858;47.832;-3.800;2022-09-02T00:37:55;1.30;;;1.10;;
50880;SDS011;36858;47.832;-3.800;2022-09-02T00:40:23;1.70;;;1.20;;
50880;SDS011;36858;47.832;-3.800;2022-09-02T00:42:50;1.83;;;1.43;;
50880;SDS011;36858;47.832;-3.800;2022-09-02T00:45:18;1.60;;;1.30;;
50880;SDS011;36858;47.832;-3.800;2022-09-02T00:47:45;13.00;;;1.77;;
50880;SDS011;36858;47.832;-3.800;2022-09-02T00:50:13;2.80;;;1.23;;
50880;SDS011;36858;47.832;-3.800;2022-09-02T00:52:44;5.20;;;1.63;;
50880;SDS011;36858;47.832;-3.800;2022-09-02T00:55:14;1.50;;;1.37;;
50880;SDS011;36858;47.832;-3.800;2022-09-02T00:57:46;1.57;;;1.30;;
50880;SDS011;36858;47.832;-3.800;2022-09-02T01:00:19;2.80;;;1.50;;
50880;SDS011;36858;47.832;-3.800;2022-09-02T01:02:51;3.87;;;1.20;;
50880;SDS011;36858;47.832;-3.800;2022-09-02T01:05:21;1.97;;;1.80;;
50880;SDS011;36858;47.832;-3.800;2022-09-02T01:07:49;1.67;;;1.53;;
50880;SDS011;36858;47.832;-3.800;2022-09-02T01:10:18;1.70;;;1.60;;
50880;SDS011;36858;47.832;-3.800;2022-09-02T01:12:47;1.83;;;1.47;;
50880;SDS011;36858;47.832;-3.800;2022-09-02T01:15:14;3.83;;;1.47;;
50880;SDS011;36858;47.832;-3.800;2022-09-02T01:17:44;0.90;;;0.90;;
50880;SDS011;36858;47.832;-3.800;2022-09-02T01:20:14;1.83;;;1.10;;
50880;SDS011;36858;47.832;-3.800;2022-09-02T01:22:43;3.17;;;1.70;;
50880;SDS011;36858;47.832;-3.800;2022-09-02T01:25:14;1.50;;;1.40;;
50880;SDS011;36858;47.832;-3.800;2022-09-02T01:27:44;1.07;;;1.07;;
50880;SDS011;36858;47.832;-3.800;2022-09-02T01:30:15;1.47;;;1.20;;
50880;SDS011;36858;47.832;-3.800;2022-09-02T01:32:45;5.27;;;1.57;;
50880;SDS011;36858;47.832;-3.800;2022-09-02T01:35:12;2.33;;;1.20;;
50880;SDS011;36858;47.832;-3.800;2022-09-02T01:37:41;5.47;;;1.63;;
50880;SDS011;36858;47.832;-3.800;2022-09-02T01:40:21;1.67;;;1.40;;
50880;SDS011;36858;47.832;-3.800;2022-09-02T01:42:48;1.30;;;1.20;;
50880;SDS011;36858;47.832;-3.800;2022-09-02T01:45:19;2.23;;;1.33;;
50880;SDS011;36858;47.832;-3.800;2022-09-02T01:47:47;1.43;;;1.20;;
50880;SDS011;36858;47.832;-3.800;2022-09-02T01:50:14;2.70;;;1.33;;
50880;SDS011;36858;47.832;-3.800;2022-09-02T01:52:41;2.00;;;1.10;;
50880;SDS011;36858;47.832;-3.800;2022-09-02T01:55:08;2.23;;;1.23;;
50880;SDS011;36858;47.832;-3.800;2022-09-02T01:57:35;3.50;;;1.37;;
50880;SDS011;36858;47.832;-3.800;2022-09-02T02:00:04;2.60;;;1.37;;
50880;SDS011;36858;47.832;-3.800;2022-09-02T02:02:32;1.40;;;1.30;;
50880;SDS011;36858;47.832;-3.800;2022-09-02T02:04:59;1.30;;;1.10;;
50880;SDS011;36858;47.832;-3.800;2022-09-02T02:07:27;1.43;;;1.33;;
50880;SDS011;36858;47.832;-3.800;2022-09-02T02:09:54;2.83;;;1.27;;
50880;SDS011;36858;47.832;-3.800;2022-09-02T02:12:21;1.70;;;1.10;;
50880;SDS011;36858;47.832;-3.800;2022-09-02T02:14:48;2.90;;;1.30;;
50880;SDS011;36858;47.832;-3.800;2022-09-02T02:17:15;1.50;;;1.10;;
50880;SDS011;36858;47.832;-3.800;2022-09-02T02:19:42;1.40;;;1.30;;
50880;SDS011;36858;47.832;-3.800;2022-09-02T02:22:09;3.17;;;1.23;;
50880;SDS011;36858;47.832;-3.800;2022-09-02T02:24:36;1.57;;;1.20;;
50880;SDS011;36858;47.832;-3.800;2022-09-02T02:27:03;1.50;;;1.40;;
50880;SDS011;36858;47.832;-3.800;2022-09-02T02:29:31;4.63;;;1.10;;
50880;SDS011;36858;47.832;-3.800;2022-09-02T02:31:58;0.97;;;0.97;;
50880;SDS011;36858;47.832;-3.800;2022-09-02T02:34:24;4.43;;;1.30;;
50880;SDS011;36858;47.832;-3.800;2022-09-02T02:36:51;2.03;;;1.30;;
50880;SDS011;36858;47.832;-3.800;2022-09-02T02:39:18;2.30;;;1.03;;
50880;SDS011;36858;47.832;-3.800;2022-09-02T02:41:46;1.00;;;1.00;;
50880;SDS011;36858;47.832;-3.800;2022-09-02T02:44:13;1.07;;;0.90;;
50880;SDS011;36858;47.832;-3.800;2022-09-02T02:46:40;2.07;;;1.13;;
50880;SDS011;36858;47.832;-3.800;2022-09-02T02:49:07;1.17;;;1.07;;
50880;SDS011;36858;47.832;-3.800;2022-09-02T02:51:34;2.13;;;1.40;;
50880;SDS011;36858;47.832;-3.800;2022-09-02T02:54:02;2.30;;;0.93;;
50880;SDS011;36858;47.832;-3.800;2022-09-02T02:56:30;3.50;;;1.00;;
50880;SDS011;36858;47.832;-3.800;2022-09-02T02:58:57;1.50;;;0.90;;
50880;SDS011;36858;47.832;-3.800;2022-09-02T03:01:29;2.10;;;1.20;;
50880;SDS011;36858;47.832;-3.800;2022-09-02T03:03:57;1.40;;;1.00;;
50880;SDS011;36858;47.832;-3.800;2022-09-02T03:06:24;1.37;;;1.10;;
50880;SDS011;36858;47.832;-3.800;2022-09-02T03:08:52;2.30;;;1.10;;
50880;SDS011;36858;47.832;-3.800;2022-09-02T03:11:19;2.60;;;1.10;;
50880;SDS011;36858;47.832;-3.800;2022-09-02T03:13:50;2.67;;;1.20;;
50880;SDS011;36858;47.832;-3.800;2022-09-02T03:16:17;2.10;;;0.80;;
50880;SDS011;36858;47.832;-3.800;2022-09-02T03:18:45;0.90;;;0.90;;
50880;SDS011;36858;47.832;-3.800;2022-09-02T03:21:13;3.17;;;1.20;;
50880;SDS011;36858;47.832;-3.800;2022-09-02T03:23:42;0.90;;;0.90;;
50880;SDS011;36858;47.832;-3.800;2022-09-02T03:26:17;0.80;;;0.80;;
50880;SDS011;36858;47.832;-3.800;2022-09-02T03:28:45;0.67;;;0.67;;
50880;SDS011;36858;47.832;-3.800;2022-09-02T03:31:18;0.60;;;0.60;;
50880;SDS011;36858;47.832;-3.800;2022-09-02T03:33:46;1.37;;;0.60;;
50880;SDS011;36858;47.832;-3.800;2022-09-02T03:39:11;1.67;;;0.63;;
50880;SDS011;36858;47.832;-3.800;2022-09-02T03:41:38;3.93;;;0.73;;
50880;SDS011;36858;47.832;-3.800;2022-09-02T03:44:08;3.13;;;0.80;;
50880;SDS011;36858;47.832;-3.800;2022-09-02T03:46:35;6.00;;;0.77;;
50880;SDS011;36858;47.832;-3.800;2022-09-02T03:49:02;5.53;;;0.80;;
50880;SDS011;36858;47.832;-3.800;2022-09-02T03:51:29;0.70;;;0.60;;
50880;SDS011;36858;47.832;-3.800;2022-09-02T03:53:57;0.80;;;0.60;;
50880;SDS011;36858;47.832;-3.800;2022-09-02T03:56:24;1.83;;;0.90;;
50880;SDS011;36858;47.832;-3.800;2022-09-02T03:58:51;1.90;;;0.97;;
50880;SDS011;36858;47.832;-3.800;2022-09-02T04:01:23;1.50;;;0.83;;
50880;SDS011;36858;47.832;-3.800;2022-09-02T04:03:54;0.83;;;0.83;;
50880;SDS011;36858;47.832;-3.800;2022-09-02T04:06:22;3.97;;;1.00;;
50880;SDS011;36858;47.832;-3.800;2022-09-02T04:08:51;1.03;;;0.97;;
50880;SDS011;36858;47.832;-3.800;2022-09-02T04:11:19;5.87;;;1.30;;
50880;SDS011;36858;47.832;-3.800;2022-09-02T04:13:47;1.67;;;1.23;;
50880;SDS011;36858;47.832;-3.800;2022-09-02T04:16:15;4.03;;;1.20;;
50880;SDS011;36858;47.832;-3.800;2022-09-02T04:18:44;0.97;;;0.97;;
50880;SDS011;36858;47.832;-3.800;2022-09-02T04:21:11;2.80;;;1.07;;
50880;SDS011;36858;47.832;-3.800;2022-09-02T04:23:39;4.20;;;1.00;;
50880;SDS011;36858;47.832;-3.800;2022-09-02T04:26:07;1.00;;;1.00;;
50880;SDS011;36858;47.832;-3.800;2022-09-02T04:28:37;1.20;;;1.10;;
50880;SDS011;36858;47.832;-3.800;2022-09-02T04:31:08;1.30;;;1.20;;
50880;SDS011;36858;47.832;-3.800;2022-09-02T04:33:37;1.27;;;0.90;;
50880;SDS011;36858;47.832;-3.800;2022-09-02T04:36:05;1.10;;;1.00;;
50880;SDS011;36858;47.832;-3.800;2022-09-02T04:38:34;1.77;;;1.10;;
50880;SDS011;36858;47.832;-3.800;2022-09-02T04:41:08;2.37;;;0.93;;
50880;SDS011;36858;47.832;-3.800;2022-09-02T04:43:37;4.70;;;1.43;;
50880;SDS011;36858;47.832;-3.800;2022-09-02T04:46:04;1.93;;;1.40;;
50880;SDS011;36858;47.832;-3.800;2022-09-02T04:48:34;3.73;;;1.33;;
50880;SDS011;36858;47.832;-3.800;2022-09-02T04:51:03;2.57;;;1.30;;
50880;SDS011;36858;47.832;-3.800;2022-09-02T04:53:34;1.40;;;1.30;;
50880;SDS011;36858;47.832;-3.800;2022-09-02T04:56:02;1.40;;;1.30;;
50880;SDS011;36858;47.832;-3.800;2022-09-02T04:58:34;2.07;;;1.17;;
50880;SDS011;36858;47.832;-3.800;2022-09-02T05:01:06;2.87;;;1.20;;
50880;SDS011;36858;47.832;-3.800;2022-09-02T05:03:34;4.33;;;1.40;;
50880;SDS011;36858;47.832;-3.800;2022-09-02T05:06:03;2.50;;;2.30;;
50880;SDS011;36858;47.832;-3.800;2022-09-02T05:08:33;1.53;;;0.80;;
50880;SDS011;36858;47.832;-3.800;2022-09-02T05:11:05;7.30;;;0.83;;
50880;SDS011;36858;47.832;-3.800;2022-09-02T05:13:32;2.40;;;0.97;;
50880;SDS011;36858;47.832;-3.800;2022-09-02T05:16:00;0.70;;;0.70;;
50880;SDS011;36858;47.832;-3.800;2022-09-02T05:18:28;1.27;;;0.87;;
50880;SDS011;36858;47.832;-3.800;2022-09-02T05:20:56;1.10;;;1.00;;
50880;SDS011;36858;47.832;-3.800;2022-09-02T05:23:23;1.57;;;0.77;;
50880;SDS011;36858;47.832;-3.800;2022-09-02T05:25:50;1.13;;;1.00;;
50880;SDS011;36858;47.832;-3.800;2022-09-02T05:28:17;2.20;;;1.10;;
50880;SDS011;36858;47.832;-3.800;2022-09-02T05:30:44;3.23;;;0.97;;
50880;SDS011;36858;47.832;-3.800;2022-09-02T05:33:11;1.37;;;0.90;;
50880;SDS011;36858;47.832;-3.800;2022-09-02T05:35:40;3.27;;;1.10;;
50880;SDS011;36858;47.832;-3.800;2022-09-02T05:38:10;2.63;;;1.03;;
50880;SDS011;36858;47.832;-3.800;2022-09-02T05:40:38;2.10;;;1.33;;
50880;SDS011;36858;47.832;-3.800;2022-09-02T05:43:05;2.63;;;1.20;;
50880;SDS011;36858;47.832;-3.800;2022-09-02T05:45:32;0.90;;;0.90;;
50880;SDS011;36858;47.832;-3.800;2022-09-02T05:47:59;1.10;;;1.00;;
50880;SDS011;36858;47.832;-3.800;2022-09-02T05:50:46;2.90;;;1.27;;
50880;SDS011;36858;47.832;-3.800;2022-09-02T05:53:22;1.10;;;1.00;;
50880;SDS011;36858;47.832;-3.800;2022-09-02T05:55:52;2.83;;;1.17;;
50880;SDS011;36858;47.832;-3.800;2022-09-02T05:58:19;1.30;;;1.20;;
50880;SDS011;36858;47.832;-3.800;2022-09-02T06:00:46;1.33;;;1.23;;
50880;SDS011;36858;47.832;-3.800;2022-09-02T06:03:13;1.50;;;1.40;;
50880;SDS011;36858;47.832;-3.800;2022-09-02T06:05:56;1.47;;;1.30;;
50880;SDS011;36858;47.832;-3.800;2022-09-02T06:08:31;1.40;;;1.30;;
50880;SDS011;36858;47.832;-3.800;2022-09-02T06:10:59;3.00;;;1.37;;
50880;SDS011;36858;47.832;-3.800;2022-09-02T06:13:29;5.80;;;1.60;;
50880;SDS011;36858;47.832;-3.800;2022-09-02T06:15:57;2.17;;;1.80;;
50880;SDS011;36858;47.832;-3.800;2022-09-02T06:18:24;1.33;;;1.23;;
50880;SDS011;36858;47.832;-3.800;2022-09-02T06:20:51;2.33;;;1.40;;
50880;SDS011;36858;47.832;-3.800;2022-09-02T06:23:18;1.73;;;1.63;;
50880;SDS011;36858;47.832;-3.800;2022-09-02T06:25:47;3.40;;;1.47;;
50880;SDS011;36858;47.832;-3.800;2022-09-02T06:28:14;3.53;;;1.77;;
50880;SDS011;36858;47.832;-3.800;2022-09-02T06:30:42;1.93;;;1.73;;
50880;SDS011;36858;47.832;-3.800;2022-09-02T06:33:10;4.17;;;2.10;;
50880;SDS011;36858;47.832;-3.800;2022-09-02T06:35:38;2.00;;;1.80;;
50880;SDS011;36858;47.832;-3.800;2022-09-02T06:38:07;4.37;;;2.50;;
50880;SDS011;36858;47.832;-3.800;2022-09-02T06:40:34;2.73;;;2.10;;
50880;SDS011;36858;47.832;-3.800;2022-09-02T06:43:01;2.87;;;2.20;;
50880;SDS011;36858;47.832;-3.800;2022-09-02T06:45:28;3.87;;;3.03;;
50880;SDS011;36858;47.832;-3.800;2022-09-02T06:47:56;3.57;;;2.90;;
50880;SDS011;36858;47.832;-3.800;2022-09-02T06:50:23;4.57;;;2.70;;
50880;SDS011;36858;47.832;-3.800;2022-09-02T06:52:53;3.30;;;3.00;;
50880;SDS011;36858;47.832;-3.800;2022-09-02T06:55:20;6.20;;;2.83;;
50880;SDS011;36858;47.832;-3.800;2022-09-02T06:57:47;2.93;;;2.73;;
50880;SDS011;36858;47.832;-3.800;2022-09-02T07:00:14;3.83;;;3.10;;
50880;SDS011;36858;47.832;-3.800;2022-09-02T07:02:42;3.77;;;3.27;;
50880;SDS011;36858;47.832;-3.800;2022-09-02T07:05:09;4.30;;;3.90;;
50880;SDS011;36858;47.832;-3.800;2022-09-02T07:07:37;4.37;;;3.30;;
50880;SDS011;36858;47.832;-3.800;2022-09-02T07:10:05;3.47;;;3.17;;
50880;SDS011;36858;47.832;-3.800;2022-09-02T07:12:35;3.23;;;3.00;;
50880;SDS011;36858;47.832;-3.800;2022-09-02T07:15:09;3.17;;;2.97;;
50880;SDS011;36858;47.832;-3.800;2022-09-02T07:17:37;3.43;;;3.13;;
50880;SDS011;36858;47.832;-3.800;2022-09-02T07:20:04;3.73;;;3.40;;
50880;SDS011;36858;47.832;-3.800;2022-09-02T07:22:32;3.13;;;2.83;;
50880;SDS011;36858;47.832;-3.800;2022-09-02T07:24:59;3.57;;;3.13;;
50880;SDS011;36858;47.832;-3.800;2022-09-02T07:27:27;4.50;;;3.07;;
50880;SDS011;36858;47.832;-3.800;2022-09-02T07:29:54;2.87;;;2.67;;
50880;SDS011;36858;47.832;-3.800;2022-09-02T07:32:21;3.83;;;3.43;;
50880;SDS011;36858;47.832;-3.800;2022-09-02T07:34:48;2.77;;;2.57;;
50880;SDS011;36858;47.832;-3.800;2022-09-02T07:37:15;9.07;;;3.03;;
50880;SDS011;36858;47.832;-3.800;2022-09-02T07:39:42;3.53;;;2.80;;
50880;SDS011;36858;47.832;-3.800;2022-09-02T07:42:10;3.47;;;2.47;;
50880;SDS011;36858;47.832;-3.800;2022-09-02T07:44:37;4.83;;;3.10;;
50880;SDS011;36858;47.832;-3.800;2022-09-02T07:47:04;3.20;;;2.93;;
50880;SDS011;36858;47.832;-3.800;2022-09-02T07:49:33;3.43;;;2.70;;
50880;SDS011;36858;47.832;-3.800;2022-09-02T07:52:20;2.97;;;2.67;;
50880;SDS011;36858;47.832;-3.800;2022-09-02T07:54:47;2.77;;;2.57;;
50880;SDS011;36858;47.832;-3.800;2022-09-02T07:57:14;3.47;;;2.80;;
50880;SDS011;36858;47.832;-3.800;2022-09-02T07:59:41;2.87;;;2.40;;
50880;SDS011;36858;47.832;-3.800;2022-09-02T08:02:08;3.67;;;2.57;;
50880;SDS011;36858;47.832;-3.800;2022-09-02T08:04:35;2.33;;;2.13;;
50880;SDS011;36858;47.832;-3.800;2022-09-02T08:07:02;5.67;;;2.23;;
50880;SDS011;36858;47.832;-3.800;2022-09-02T08:09:29;3.30;;;2.30;;
50880;SDS011;36858;47.832;-3.800;2022-09-02T08:11:56;2.47;;;2.20;;
50880;SDS011;36858;47.832;-3.800;2022-09-02T08:14:24;2.40;;;2.20;;
50880;SDS011;36858;47.832;-3.800;2022-09-02T08:16:55;2.00;;;1.80;;
50880;SDS011;36858;47.832;-3.800;2022-09-02T08:19:24;3.13;;;2.07;;
50880;SDS011;36858;47.832;-3.800;2022-09-02T08:21:52;3.33;;;1.90;;
50880;SDS011;36858;47.832;-3.800;2022-09-02T08:24:20;3.00;;;1.97;;
50880;SDS011;36858;47.832;-3.800;2022-09-02T08:26:47;3.60;;;1.47;;
50880;SDS011;36858;47.832;-3.800;2022-09-02T08:29:14;1.97;;;1.63;;
50880;SDS011;36858;47.832;-3.800;2022-09-02T08:31:42;3.40;;;2.23;;
50880;SDS011;36858;47.832;-3.800;2022-09-02T08:34:09;3.73;;;1.60;;
50880;SDS011;36858;47.832;-3.800;2022-09-02T08:36:36;2.27;;;1.80;;
50880;SDS011;36858;47.832;-3.800;2022-09-02T08:39:10;3.43;;;1.90;;
50880;SDS011;36858;47.832;-3.800;2022-09-02T08:44:35;4.70;;;2.23;;
50880;SDS011;36858;47.832;-3.800;2022-09-02T08:47:05;8.80;;;2.50;;
50880;SDS011;36858;47.832;-3.800;2022-09-02T08:49:40;7.10;;;2.70;;
50880;SDS011;36858;47.832;-3.800;2022-09-02T08:52:09;4.20;;;2.23;;
50880;SDS011;36858;47.832;-3.800;2022-09-02T08:54:45;5.00;;;2.40;;
50880;SDS011;36858;47.832;-3.800;2022-09-02T08:57:16;2.37;;;1.70;;
50880;SDS011;36858;47.832;-3.800;2022-09-02T08:59:43;2.23;;;1.73;;
50880;SDS011;36858;47.832;-3.800;2022-09-02T09:18:31;1.90;;;1.73;;
50880;SDS011;36858;47.832;-3.800;2022-09-02T09:21:03;1.47;;;1.37;;
50880;SDS011;36858;47.832;-3.800;2022-09-02T09:23:31;5.07;;;1.77;;
50880;SDS011;36858;47.832;-3.800;2022-09-02T09:26:06;1.70;;;1.30;;
50880;SDS011;36858;47.832;-3.800;2022-09-02T09:28:38;1.97;;;1.77;;
50880;SDS011;36858;47.832;-3.800;2022-09-02T09:31:10;1.40;;;1.27;;
50880;SDS011;36858;47.832;-3.800;2022-09-02T09:33:53;2.20;;;1.43;;
50880;SDS011;36858;47.832;-3.800;2022-09-02T09:39:23;2.17;;;1.33;;
50880;SDS011;36858;47.832;-3.800;2022-09-02T09:41:55;1.30;;;1.20;;
50880;SDS011;36858;47.832;-3.800;2022-09-02T09:44:35;1.50;;;1.17;;
50880;SDS011;36858;47.832;-3.800;2022-09-02T09:47:18;1.83;;;1.30;;
50880;SDS011;36858;47.832;-3.800;2022-09-02T09:50:07;3.60;;;1.20;;
50880;SDS011;36858;47.832;-3.800;2022-09-02T09:52:37;2.40;;;1.43;;
50880;SDS011;36858;47.832;-3.800;2022-09-02T09:57:41;5.17;;;1.13;;
50880;SDS011;36858;47.832;-3.800;2022-09-02T10:00:24;3.27;;;1.83;;
50880;SDS011;36858;47.832;-3.800;2022-09-02T10:02:54;3.40;;;1.40;;
50880;SDS011;36858;47.832;-3.800;2022-09-02T10:07:57;3.17;;;1.53;;
50880;SDS011;36858;47.832;-3.800;2022-09-02T10:10:28;2.63;;;1.60;;
50880;SDS011;36858;47.832;-3.800;2022-09-02T10:12:57;8.07;;;1.90;;
50880;SDS011;36858;47.832;-3.800;2022-09-02T10:24:20;3.60;;;1.70;;
50880;SDS011;36858;47.832;-3.800;2022-09-02T10:26:53;3.70;;;1.87;;
50880;SDS011;36858;47.832;-3.800;2022-09-02T10:38:01;7.43;;;2.90;;
50880;SDS011;36858;47.832;-3.800;2022-09-02T10:40:54;16.77;;;4.60;;
50880;SDS011;36858;47.832;-3.800;2022-09-02T10:45:58;7.50;;;2.80;;
50880;SDS011;36858;47.832;-3.800;2022-09-02T10:53:52;8.00;;;2.80;;
50880;SDS011;36858;47.832;-3.800;2022-09-02T10:56:26;7.40;;;2.63;;
50880;SDS011;36858;47.832;-3.800;2022-09-02T10:58:58;8.60;;;2.20;;
50880;SDS011;36858;47.832;-3.800;2022-09-02T11:01:33;5.77;;;2.70;;
50880;SDS011;36858;47.832;-3.800;2022-09-02T11:04:07;8.60;;;2.10;;
50880;SDS011;36858;47.832;-3.800;2022-09-02T11:06:37;5.47;;;2.00;;
50880;SDS011;36858;47.832;-3.800;2022-09-02T11:10:02;4.97;;;2.20;;
50880;SDS011;36858;47.832;-3.800;2022-09-02T11:12:29;6.77;;;2.10;;
50880;SDS011;36858;47.832;-3.800;2022-09-02T11:15:09;4.57;;;2.10;;
50880;SDS011;36858;47.832;-3.800;2022-09-02T11:17:43;6.30;;;2.07;;
50880;SDS011;36858;47.832;-3.800;2022-09-02T11:22:58;6.47;;;1.93;;
50880;SDS011;36858;47.832;-3.800;2022-09-02T11:25:33;2.03;;;1.83;;
50880;SDS011;36858;47.832;-3.800;2022-09-02T11:28:11;14.00;;;2.97;;
50880;SDS011;36858;47.832;-3.800;2022-09-02T11:36:31;4.40;;;2.53;;
50880;SDS011;36858;47.832;-3.800;2022-09-02T11:39:37;8.37;;;3.00;;
50880;SDS011;36858;47.832;-3.800;2022-09-02T11:53:53;2.70;;;2.30;;
50880;SDS011;36858;47.832;-3.800;2022-09-02T11:56:58;5.30;;;1.90;;
50880;SDS011;36858;47.832;-3.800;2022-09-02T12:02:33;2.90;;;1.97;;
50880;SDS011;36858;47.832;-3.800;2022-09-02T12:08:04;3.87;;;1.60;;
50880;SDS011;36858;47.832;-3.800;2022-09-02T12:13:35;2.33;;;1.70;;
50880;SDS011;36858;47.832;-3.800;2022-09-02T12:18:43;3.63;;;1.13;;
50880;SDS011;36858;47.832;-3.800;2022-09-02T12:21:14;2.10;;;1.60;;
50880;SDS011;36858;47.832;-3.800;2022-09-02T12:26:22;1.30;;;1.20;;
50880;SDS011;36858;47.832;-3.800;2022-09-02T12:28:51;5.90;;;1.10;;
50880;SDS011;36858;47.832;-3.800;2022-09-02T12:31:37;1.63;;;1.20;;
50880;SDS011;36858;47.832;-3.800;2022-09-02T12:36:51;1.73;;;1.20;;
50880;SDS011;36858;47.832;-3.800;2022-09-02T12:50:08;0.90;;;0.90;;
50880;SDS011;36858;47.832;-3.800;2022-09-02T12:53:10;1.93;;;1.10;;
50880;SDS011;36858;47.832;-3.800;2022-09-02T12:55:56;0.80;;;0.80;;
50880;SDS011;36858;47.832;-3.800;2022-09-02T12:58:33;1.30;;;1.03;;
50880;SDS011;36858;47.832;-3.800;2022-09-02T13:01:12;1.10;;;1.00;;
50880;SDS011;36858;47.832;-3.800;2022-09-02T13:30:17;3.40;;;1.07;;
50880;SDS011;36858;47.832;-3.800;2022-09-02T13:32:44;2.73;;;1.47;;
50880;SDS011;36858;47.832;-3.800;2022-09-02T13:35:19;1.17;;;1.00;;
50880;SDS011;36858;47.832;-3.800;2022-09-02T13:37:57;3.43;;;1.10;;
50880;SDS011;36858;47.832;-3.800;2022-09-02T13:40:31;3.20;;;1.07;;
50880;SDS011;36858;47.832;-3.800;2022-09-02T13:43:00;1.30;;;1.00;;
50880;SDS011;36858;47.832;-3.800;2022-09-02T13:45:36;1.20;;;0.80;;
50880;SDS011;36858;47.832;-3.800;2022-09-02T13:48:13;3.00;;;0.87;;
50880;SDS011;36858;47.832;-3.800;2022-09-02T13:50:47;1.03;;;0.90;;
50880;SDS011;36858;47.832;-3.800;2022-09-02T13:56:24;1.00;;;0.87;;
50880;SDS011;36858;47.832;-3.800;2022-09-02T13:58:54;2.03;;;0.80;;
50880;SDS011;36858;47.832;-3.800;2022-09-02T14:03:57;1.37;;;0.90;;
50880;SDS011;36858;47.832;-3.800;2022-09-02T14:06:27;1.63;;;1.00;;
50880;SDS011;36858;47.832;-3.800;2022-09-02T14:08:57;0.83;;;0.80;;
50880;SDS011;36858;47.832;-3.800;2022-09-02T14:11:25;1.93;;;1.30;;
50880;SDS011;36858;47.832;-3.800;2022-09-02T14:13:53;1.20;;;1.00;;
50880;SDS011;36858;47.832;-3.800;2022-09-02T14:16:30;3.10;;;2.80;;
50880;SDS011;36858;47.832;-3.800;2022-09-02T14:19:05;4.47;;;4.00;;
50880;SDS011;36858;47.832;-3.800;2022-09-02T14:21:36;4.03;;;1.80;;
50880;SDS011;36858;47.832;-3.800;2022-09-02T14:24:13;1.53;;;1.30;;
50880;SDS011;36858;47.832;-3.800;2022-09-02T14:26:42;1.50;;;1.20;;
50880;SDS011;36858;47.832;-3.800;2022-09-02T14:29:13;1.90;;;1.20;;
50880;SDS011;36858;47.832;-3.800;2022-09-02T14:31:41;1.30;;;1.10;;
50880;SDS011;36858;47.832;-3.800;2022-09-02T14:36:57;2.20;;;1.00;;
50880;SDS011;36858;47.832;-3.800;2022-09-02T14:39:24;2.83;;;1.10;;
50880;SDS011;36858;47.832;-3.800;2022-09-02T14:41:52;2.23;;;1.20;;
50880;SDS011;36858;47.832;-3.800;2022-09-02T14:44:21;1.07;;;0.97;;
50880;SDS011;36858;47.832;-3.800;2022-09-02T14:46:52;1.67;;;1.10;;
50880;SDS011;36858;47.832;-3.800;2022-09-02T14:51:49;1.20;;;1.10;;
50880;SDS011;36858;47.832;-3.800;2022-09-02T14:57:26;1.23;;;1.13;;
50880;SDS011;36858;47.832;-3.800;2022-09-02T14:59:59;2.03;;;1.17;;
50880;SDS011;36858;47.832;-3.800;2022-09-02T15:02:44;1.10;;;1.00;;
50880;SDS011;36858;47.832;-3.800;2022-09-02T15:05:14;1.93;;;1.00;;
50880;SDS011;36858;47.832;-3.800;2022-09-02T15:07:42;1.50;;;1.30;;
50880;SDS011;36858;47.832;-3.800;2022-09-02T15:10:08;3.00;;;1.30;;
50880;SDS011;36858;47.832;-3.800;2022-09-02T15:12:45;1.27;;;1.17;;
50880;SDS011;36858;47.832;-3.800;2022-09-02T15:15:14;1.07;;;0.90;;
50880;SDS011;36858;47.832;-3.800;2022-09-02T15:17:41;0.97;;;0.97;;
50880;SDS011;36858;47.832;-3.800;2022-09-02T15:20:09;3.03;;;1.00;;
50880;SDS011;36858;47.832;-3.800;2022-09-02T15:22:36;4.43;;;0.90;;
50880;SDS011;36858;47.832;-3.800;2022-09-02T15:25:04;2.53;;;1.30;;
50880;SDS011;36858;47.832;-3.800;2022-09-02T15:27:33;2.13;;;0.90;;
50880;SDS011;36858;47.832;-3.800;2022-09-02T15:30:00;0.80;;;0.80;;
50880;SDS011;36858;47.832;-3.800;2022-09-02T15:32:27;1.40;;;0.90;;
50880;SDS011;36858;47.832;-3.800;2022-09-02T15:34:54;1.33;;;1.00;;
50880;SDS011;36858;47.832;-3.800;2022-09-02T15:37:21;1.63;;;1.03;;
50880;SDS011;36858;47.832;-3.800;2022-09-02T15:39:49;2.20;;;1.00;;
50880;SDS011;36858;47.832;-3.800;2022-09-02T15:42:16;1.03;;;0.83;;
50880;SDS011;36858;47.832;-3.800;2022-09-02T15:44:46;1.50;;;1.10;;
50880;SDS011;36858;47.832;-3.800;2022-09-02T15:47:13;4.53;;;1.23;;
50880;SDS011;36858;47.832;-3.800;2022-09-02T15:49:40;5.43;;;1.03;;
50880;SDS011;36858;47.832;-3.800;2022-09-02T15:52:07;1.23;;;1.00;;
50880;SDS011;36858;47.832;-3.800;2022-09-02T15:54:34;3.63;;;1.13;;
50880;SDS011;36858;47.832;-3.800;2022-09-02T15:57:01;3.00;;;1.10;;
50880;SDS011;36858;47.832;-3.800;2022-09-02T15:59:28;1.57;;;0.67;;
50880;SDS011;36858;47.832;-3.800;2022-09-02T16:01:55;0.70;;;0.63;;
50880;SDS011;36858;47.832;-3.800;2022-09-02T16:04:24;1.23;;;1.13;;
50880;SDS011;36858;47.832;-3.800;2022-09-02T16:06:52;0.87;;;0.80;;
50880;SDS011;36858;47.832;-3.800;2022-09-02T16:09:19;2.70;;;0.87;;
50880;SDS011;36858;47.832;-3.800;2022-09-02T16:11:48;0.90;;;0.90;;
50880;SDS011;36858;47.832;-3.800;2022-09-02T16:14:17;1.60;;;0.80;;
50880;SDS011;36858;47.832;-3.800;2022-09-02T16:16:46;1.13;;;0.73;;
50880;SDS011;36858;47.832;-3.800;2022-09-02T16:19:15;0.87;;;0.70;;
50880;SDS011;36858;47.832;-3.800;2022-09-02T16:21:44;0.97;;;0.90;;
50880;SDS011;36858;47.832;-3.800;2022-09-02T16:24:11;1.00;;;0.90;;
50880;SDS011;36858;47.832;-3.800;2022-09-02T16:26:39;1.33;;;1.23;;
50880;SDS011;36858;47.832;-3.800;2022-09-02T16:29:08;2.70;;;1.37;;
50880;SDS011;36858;47.832;-3.800;2022-09-02T16:31:39;2.57;;;1.40;;
50880;SDS011;36858;47.832;-3.800;2022-09-02T16:34:07;9.07;;;2.03;;
50880;SDS011;36858;47.832;-3.800;2022-09-02T16:36:40;2.80;;;1.83;;
50880;SDS011;36858;47.832;-3.800;2022-09-02T16:39:09;2.20;;;1.40;;
50880;SDS011;36858;47.832;-3.800;2022-09-02T16:41:39;4.77;;;1.97;;
50880;SDS011;36858;47.832;-3.800;2022-09-02T16:44:13;2.43;;;1.73;;
50880;SDS011;36858;47.832;-3.800;2022-09-02T16:46:48;2.67;;;1.87;;
50880;SDS011;36858;47.832;-3.800;2022-09-02T16:49:16;3.33;;;1.87;;
50880;SDS011;36858;47.832;-3.800;2022-09-02T16:51:45;4.53;;;2.00;;
50880;SDS011;36858;47.832;-3.800;2022-09-02T16:54:14;4.60;;;2.30;;
50880;SDS011;36858;47.832;-3.800;2022-09-02T16:56:55;4.23;;;2.27;;
50880;SDS011;36858;47.832;-3.800;2022-09-02T16:59:22;2.53;;;1.67;;
50880;SDS011;36858;47.832;-3.800;2022-09-02T17:01:49;4.27;;;1.87;;
50880;SDS011;36858;47.832;-3.800;2022-09-02T17:04:16;2.33;;;1.93;;
50880;SDS011;36858;47.832;-3.800;2022-09-02T17:06:43;2.07;;;1.57;;
50880;SDS011;36858;47.832;-3.800;2022-09-02T17:09:10;3.27;;;1.40;;
50880;SDS011;36858;47.832;-3.800;2022-09-02T17:11:37;1.47;;;1.10;;
50880;SDS011;36858;47.832;-3.800;2022-09-02T17:14:07;2.33;;;1.53;;